createdAt,value
2023-03-01T00:01:05.183Z,8.40
2023-03-01T00:03:33.748Z,8.73
2023-03-01T00:06:01.041Z,8.02
2023-03-01T00:08:28.124Z,8.60
2023-03-01T00:11:09.899Z,8.38
2023-03-01T00:13:36.785Z,8.25
2023-03-01T00:16:05.368Z,8.15
2023-03-01T00:18:32.153Z,8.05
2023-03-01T00:20:58.848Z,8.25
2023-03-01T00:23:25.824Z,8.27
2023-03-01T00:25:52.850Z,8.32
2023-03-01T00:28:19.907Z,8.95
2023-03-01T00:30:46.573Z,8.45
2023-03-01T00:33:13.471Z,8.82
2023-03-01T00:35:40.204Z,8.10
2023-03-01T00:38:07.038Z,8.18
2023-03-01T00:40:35.464Z,8.43
2023-03-01T00:43:02.828Z,8.18
2023-03-01T00:45:30.359Z,8.23
2023-03-01T00:47:56.961Z,8.10
2023-03-01T00:50:24.649Z,8.10
2023-03-01T00:52:55.459Z,8.45
2023-03-01T00:55:22.084Z,8.25
2023-03-01T00:57:48.664Z,7.80
2023-03-01T01:00:16.025Z,8.18
2023-03-01T01:02:42.925Z,7.60
2023-03-01T01:05:09.705Z,7.72
2023-03-01T01:07:36.513Z,7.60
2023-03-01T01:10:04.050Z,8.18
2023-03-01T01:12:30.649Z,7.97
2023-03-01T01:14:57.494Z,8.13
2023-03-01T01:17:24.101Z,7.82
2023-03-01T01:19:50.749Z,7.95
2023-03-01T01:22:17.373Z,8.02
2023-03-01T01:24:43.995Z,7.57
2023-03-01T01:27:10.603Z,8.00
2023-03-01T01:29:37.640Z,7.80
2023-03-01T01:32:04.454Z,7.90
2023-03-01T01:34:31.149Z,8.10
2023-03-01T01:36:58.178Z,7.53
2023-03-01T01:39:24.842Z,8.38
2023-03-01T01:41:51.449Z,8.40
2023-03-01T01:44:26.911Z,7.57
2023-03-01T01:49:26.737Z,7.50
2023-03-01T01:52:01.137Z,7.63
2023-03-01T01:54:37.127Z,8.10
2023-03-01T01:57:12.345Z,7.65
2023-03-01T01:59:40.240Z,7.43
2023-03-01T02:02:06.864Z,7.80
2023-03-01T02:04:33.991Z,8.02
2023-03-01T02:07:08.790Z,7.68
2023-03-01T02:09:35.667Z,8.32
2023-03-01T02:12:03.408Z,7.97
2023-03-01T02:14:30.001Z,8.52
2023-03-01T02:16:56.620Z,8.15
2023-03-01T02:19:32.907Z,8.80
2023-03-01T02:22:22.317Z,8.13
2023-03-01T02:24:53.397Z,8.18
2023-03-01T02:27:22.896Z,7.82
2023-03-01T02:29:50.053Z,7.97
2023-03-01T02:32:17.762Z,7.70
2023-03-01T02:34:44.488Z,7.47
2023-03-01T02:37:15.842Z,7.88
2023-03-01T02:39:48.905Z,8.10
2023-03-01T02:42:22.863Z,7.50
2023-03-01T02:44:50.764Z,8.25
2023-03-01T02:47:17.423Z,7.53
2023-03-01T02:49:44.044Z,8.02
2023-03-01T02:52:37.898Z,7.63
2023-03-01T02:55:12.033Z,7.85
2023-03-01T02:57:40.838Z,7.87
2023-03-01T03:00:10.858Z,8.20
2023-03-01T03:02:37.975Z,7.85
2023-03-01T03:05:19.656Z,8.32
2023-03-01T03:07:47.865Z,8.50
2023-03-01T03:10:17.605Z,8.25
2023-03-01T03:12:44.212Z,8.38
2023-03-01T03:15:13.679Z,8.30
2023-03-01T03:17:43.729Z,8.35
2023-03-01T03:20:12.915Z,8.50
2023-03-01T03:22:40.911Z,8.73
2023-03-01T03:25:11.416Z,8.90
2023-03-01T03:27:41.442Z,9.43
2023-03-01T03:30:13.280Z,9.13
2023-03-01T03:32:53.064Z,9.23
2023-03-01T03:35:26.393Z,9.60
2023-03-01T03:38:02.692Z,9.07
2023-03-01T03:40:32.471Z,8.80
2023-03-01T03:42:59.055Z,9.32
2023-03-01T03:45:25.720Z,9.07
2023-03-01T03:47:52.379Z,8.90
2023-03-01T03:50:19.167Z,8.98
2023-03-01T03:52:46.108Z,9.00
2023-03-01T03:55:13.474Z,8.65
2023-03-01T03:57:41.546Z,8.38
2023-03-01T04:00:13.682Z,9.05
2023-03-01T04:02:42.188Z,9.35
2023-03-01T04:05:10.126Z,9.13
2023-03-01T04:07:37.545Z,9.25
2023-03-01T04:10:05.704Z,9.02
2023-03-01T04:12:35.018Z,8.80
2023-03-01T04:15:14.055Z,9.40
2023-03-01T04:17:41.245Z,9.23
2023-03-01T04:20:12.228Z,9.55
2023-03-01T04:22:39.733Z,9.20
2023-03-01T04:25:07.227Z,8.70
2023-03-01T04:27:37.859Z,9.48
2023-03-01T04:30:04.859Z,9.10
2023-03-01T04:32:31.537Z,9.38
2023-03-01T04:34:58.113Z,9.25
2023-03-01T04:37:25.091Z,9.55
2023-03-01T04:39:51.732Z,8.90
2023-03-01T04:42:19.052Z,8.85
2023-03-01T04:44:46.300Z,8.50
2023-03-01T04:47:13.307Z,9.38
2023-03-01T04:49:39.883Z,9.45
2023-03-01T04:52:06.701Z,8.63
2023-03-01T04:54:34.265Z,9.25
2023-03-01T04:57:02.459Z,9.30
2023-03-01T04:59:29.867Z,9.15
2023-03-01T05:01:57.602Z,8.52
2023-03-01T05:04:25.388Z,9.23
2023-03-01T05:06:52.082Z,9.00
2023-03-01T05:09:18.814Z,9.30
2023-03-01T05:11:45.587Z,8.90
2023-03-01T05:14:12.354Z,9.00
2023-03-01T05:16:39.185Z,9.02
2023-03-01T05:19:12.389Z,8.98
2023-03-01T05:21:59.983Z,9.48
2023-03-01T05:24:27.725Z,8.90
2023-03-01T05:26:54.880Z,9.40
2023-03-01T05:29:26.006Z,9.32
2023-03-01T05:31:54.562Z,9.05
2023-03-01T05:34:47.764Z,8.90
2023-03-01T05:37:14.793Z,9.50
2023-03-01T05:39:42.818Z,9.10
2023-03-01T05:42:12.290Z,9.25
2023-03-01T05:44:39.195Z,9.75
2023-03-01T05:47:05.893Z,9.40
2023-03-01T05:49:33.025Z,9.18
2023-03-01T05:51:59.684Z,9.43
2023-03-01T05:54:26.403Z,8.85
2023-03-01T05:56:52.990Z,8.57
2023-03-01T05:59:19.599Z,8.85
2023-03-01T06:01:46.205Z,8.70
2023-03-01T06:04:12.917Z,9.10
2023-03-01T06:06:39.574Z,9.18
2023-03-01T06:09:08.300Z,9.07
2023-03-01T06:11:35.975Z,8.82
2023-03-01T06:14:02.603Z,8.93
2023-03-01T06:16:29.681Z,8.38
2023-03-01T06:18:56.500Z,8.65
2023-03-01T06:21:23.103Z,8.80
2023-03-01T06:23:49.638Z,8.32
2023-03-01T06:26:16.318Z,8.50
2023-03-01T06:28:42.887Z,8.50
2023-03-01T06:31:10.426Z,8.95
2023-03-01T06:33:37.180Z,9.13
2023-03-01T06:36:04.151Z,8.82
2023-03-01T06:38:30.880Z,8.90
2023-03-01T06:40:57.674Z,8.82
2023-03-01T06:43:24.636Z,9.02
2023-03-01T06:45:51.531Z,8.82
2023-03-01T06:48:18.373Z,8.70
2023-03-01T06:50:45.118Z,8.60
2023-03-01T06:53:11.823Z,8.30
2023-03-01T06:55:38.460Z,8.68
2023-03-01T06:58:05.191Z,8.35
2023-03-01T07:00:32.069Z,8.48
2023-03-01T07:03:03.421Z,8.65
2023-03-01T07:05:31.042Z,8.52
2023-03-01T07:07:57.732Z,8.25
2023-03-01T07:10:24.717Z,8.10
2023-03-01T07:12:51.340Z,8.48
2023-03-01T07:15:17.973Z,8.68
2023-03-01T07:17:45.636Z,8.65
2023-03-01T07:20:12.738Z,8.57
2023-03-01T07:22:42.384Z,8.82
2023-03-01T07:25:10.419Z,8.63
2023-03-01T07:27:37.349Z,8.75
2023-03-01T07:30:04.790Z,9.07
2023-03-01T07:32:31.599Z,8.60
2023-03-01T07:34:58.226Z,8.10
2023-03-01T07:37:24.871Z,8.05
2023-03-01T07:39:51.444Z,8.00
2023-03-01T07:42:18.054Z,8.02
2023-03-01T07:44:44.702Z,7.80
2023-03-01T07:47:11.322Z,8.20
2023-03-01T07:49:37.930Z,8.25
2023-03-01T07:52:04.690Z,8.02
2023-03-01T07:54:31.300Z,8.23
2023-03-01T07:56:58.177Z,8.35
2023-03-01T07:59:29.884Z,7.85
2023-03-01T08:01:57.603Z,8.57
2023-03-01T08:04:25.892Z,8.65
2023-03-01T08:06:52.653Z,7.93
2023-03-01T08:09:19.466Z,8.43
2023-03-01T08:11:46.148Z,8.50
2023-03-01T08:14:12.966Z,8.45
2023-03-01T08:16:39.892Z,8.63
2023-03-01T08:19:11.916Z,8.00
2023-03-01T08:21:38.983Z,8.27
2023-03-01T08:24:06.944Z,8.75
2023-03-01T08:26:34.214Z,8.60
2023-03-01T08:29:01.423Z,8.38
2023-03-01T08:31:36.924Z,8.77
2023-03-01T08:34:08.784Z,8.40
2023-03-01T08:36:41.559Z,8.20
2023-03-01T08:39:09.485Z,8.57
2023-03-01T08:41:36.212Z,8.00
2023-03-01T08:44:04.092Z,8.10
2023-03-01T08:46:33.636Z,8.50
2023-03-01T08:49:00.644Z,8.20
2023-03-01T08:51:27.619Z,8.38
2023-03-01T08:53:54.352Z,8.35
2023-03-01T08:56:21.550Z,8.10
2023-03-01T08:58:49.246Z,8.23
2023-03-01T09:01:17.760Z,7.95
2023-03-01T09:03:45.171Z,8.10
2023-03-01T09:06:12.390Z,8.07
2023-03-01T09:08:40.598Z,8.40
2023-03-01T09:11:09.024Z,8.50
2023-03-01T09:13:35.775Z,8.32
2023-03-01T09:16:04.027Z,8.55
2023-03-01T09:18:30.710Z,8.02
2023-03-01T09:21:08.971Z,8.05
2023-03-01T09:23:43.338Z,7.72
2023-03-01T09:26:13.248Z,8.38
2023-03-01T09:28:41.932Z,7.82
2023-03-01T09:31:08.630Z,8.23
2023-03-01T09:33:35.582Z,7.38
2023-03-01T09:36:04.782Z,7.93
2023-03-01T09:38:32.263Z,7.90
2023-03-01T09:40:58.952Z,7.97
2023-03-01T09:43:46.598Z,7.80
2023-03-01T09:46:17.722Z,7.47
2023-03-01T09:48:51.918Z,7.57
2023-03-01T09:51:23.637Z,7.60
2023-03-01T09:53:50.345Z,7.88
2023-03-01T09:56:38.113Z,7.25
2023-03-01T09:59:16.750Z,7.93
2023-03-01T10:02:12.655Z,7.72
2023-03-01T10:04:47.471Z,7.40
2023-03-01T10:07:43.818Z,7.95
2023-03-01T10:10:19.367Z,7.85
2023-03-01T10:12:46.323Z,8.18
2023-03-01T10:15:16.657Z,7.65
2023-03-01T10:17:49.509Z,7.40
2023-03-01T10:20:23.535Z,8.00
2023-03-01T10:22:56.029Z,7.60
2023-03-01T10:25:43.536Z,7.13
2023-03-01T10:28:32.668Z,7.53
2023-03-01T10:31:00.132Z,6.95
2023-03-01T10:33:36.928Z,6.80
2023-03-01T10:36:03.940Z,6.68
2023-03-01T10:38:32.250Z,6.75
2023-03-01T10:41:06.925Z,7.00
2023-03-01T10:43:48.154Z,6.53
2023-03-01T10:46:27.184Z,6.68
2023-03-01T10:49:16.078Z,7.25
2023-03-01T10:51:45.083Z,6.65
2023-03-01T10:54:25.625Z,6.88
2023-03-01T10:56:54.913Z,6.47
2023-03-01T10:59:39.280Z,6.57
2023-03-01T11:02:24.120Z,6.78
2023-03-01T11:05:20.583Z,6.47
2023-03-01T11:07:53.500Z,6.40
2023-03-01T11:10:31.008Z,7.00
2023-03-01T11:13:16.109Z,6.53
2023-03-01T11:15:43.436Z,6.32
2023-03-01T11:18:34.022Z,6.18
2023-03-01T11:21:04.904Z,6.22
2023-03-01T11:23:31.822Z,6.30
2023-03-01T11:26:05.375Z,6.03
2023-03-01T11:28:32.068Z,6.60
2023-03-01T11:31:15.112Z,6.07
2023-03-01T11:33:52.033Z,5.80
2023-03-01T11:36:40.612Z,6.20
2023-03-01T11:39:21.799Z,6.57
2023-03-01T11:41:53.170Z,6.55
2023-03-01T11:44:26.602Z,6.28
2023-03-01T11:47:33.950Z,6.40
2023-03-01T11:50:19.551Z,6.65
2023-03-01T11:53:08.476Z,6.60
2023-03-01T11:55:46.800Z,6.35
2023-03-01T11:58:24.269Z,6.68
2023-03-01T12:01:12.133Z,5.97
2023-03-01T12:03:47.756Z,6.00
2023-03-01T12:06:24.900Z,5.97
2023-03-01T12:09:06.529Z,5.95
2023-03-01T12:11:52.069Z,6.00
2023-03-01T12:14:39.765Z,6.10
2023-03-01T12:17:31.013Z,5.80
2023-03-01T12:19:58.661Z,6.40
2023-03-01T12:22:32.196Z,6.18
2023-03-01T12:24:58.718Z,5.60
2023-03-01T12:27:52.738Z,6.10
2023-03-01T12:30:39.813Z,6.20
2023-03-01T12:33:12.669Z,6.22
2023-03-01T12:35:57.315Z,6.15
2023-03-01T12:38:38.504Z,6.25
2023-03-01T12:41:17.286Z,6.07
2023-03-01T12:44:19.348Z,6.30
2023-03-01T12:47:04.735Z,6.57
2023-03-01T12:52:11.227Z,5.68
2023-03-01T12:54:38.385Z,6.00
2023-03-01T12:57:16.586Z,5.70
2023-03-01T13:00:09.546Z,5.97
2023-03-01T13:02:53.526Z,5.75
2023-03-01T13:05:41.910Z,5.68
2023-03-01T13:08:16.839Z,6.45
2023-03-01T13:13:23.632Z,6.10
2023-03-01T13:15:52.248Z,6.35
2023-03-01T13:18:24.005Z,6.20
2023-03-01T13:21:01.594Z,6.32
2023-03-01T13:23:37.384Z,5.88
2023-03-01T13:26:16.935Z,6.25
2023-03-01T13:28:47.440Z,5.75
2023-03-01T13:31:17.212Z,5.20
2023-03-01T13:33:48.077Z,5.60
2023-03-01T13:36:30.446Z,5.82
2023-03-01T13:39:32.313Z,5.32
2023-03-01T13:42:00.935Z,4.55
2023-03-01T13:44:39.770Z,5.00
2023-03-01T13:47:14.895Z,5.38
2023-03-01T13:49:48.712Z,4.88
2023-03-01T13:52:44.528Z,4.88
2023-03-01T13:55:36.003Z,5.50
2023-03-01T13:58:06.436Z,5.07
2023-03-01T14:00:38.424Z,4.97
2023-03-01T14:03:12.633Z,5.78
2023-03-01T14:05:41.119Z,5.15
2023-03-01T14:08:20.924Z,4.65
2023-03-01T14:11:02.844Z,5.50
2023-03-01T14:13:54.313Z,5.30
2023-03-01T14:16:29.683Z,5.00
2023-03-01T14:19:42.081Z,5.40
2023-03-01T14:22:29.464Z,5.68
2023-03-01T14:25:01.962Z,5.00
2023-03-01T14:27:42.877Z,5.15
2023-03-01T14:30:16.527Z,4.93
2023-03-01T14:32:43.155Z,4.78
2023-03-01T14:35:39.894Z,4.90
2023-03-01T14:38:06.593Z,4.57
2023-03-01T14:40:35.615Z,4.88
2023-03-01T14:43:09.572Z,5.30
2023-03-01T14:45:36.414Z,4.97
2023-03-01T14:48:05.946Z,5.00
2023-03-01T14:50:35.022Z,5.03
2023-03-01T14:53:06.409Z,4.90
2023-03-01T14:55:42.666Z,4.88
2023-03-01T14:58:14.734Z,5.28
2023-03-01T15:01:00.800Z,5.55
2023-03-01T15:03:32.514Z,5.05
2023-03-01T15:06:01.038Z,4.90
2023-03-01T15:08:33.949Z,4.90
2023-03-01T15:11:25.931Z,5.10
2023-03-01T15:13:53.390Z,5.90
2023-03-01T15:16:23.533Z,5.53
2023-03-01T15:18:56.072Z,5.35
2023-03-01T15:21:25.533Z,5.43
2023-03-01T15:23:54.847Z,6.43
2023-03-01T15:26:30.557Z,4.90
2023-03-01T15:28:59.288Z,5.50
2023-03-01T15:31:31.091Z,4.90
2023-03-01T15:34:23.146Z,4.65
2023-03-01T15:36:51.007Z,4.53
2023-03-01T15:39:39.040Z,4.90
2023-03-01T15:42:13.589Z,5.00
2023-03-01T15:44:44.299Z,4.88
2023-03-01T15:47:27.264Z,4.72
2023-03-01T15:49:56.045Z,5.28
2023-03-01T15:52:40.826Z,5.30
2023-03-01T15:55:16.910Z,5.50
2023-03-01T15:57:43.513Z,4.97
2023-03-01T16:00:12.397Z,5.65
2023-03-01T16:02:39.325Z,5.40
2023-03-01T16:05:06.687Z,5.45
2023-03-01T16:07:33.282Z,5.20
2023-03-01T16:09:59.849Z,5.57
2023-03-01T16:12:26.487Z,5.60
2023-03-01T16:14:54.000Z,6.03
2023-03-01T16:17:20.672Z,6.18
2023-03-01T16:19:47.280Z,5.90
2023-03-01T16:22:13.920Z,5.90
2023-03-01T16:24:41.932Z,6.07
2023-03-01T16:27:08.567Z,5.43
2023-03-01T16:29:35.319Z,6.13
2023-03-01T16:32:03.041Z,5.85
2023-03-01T16:34:29.938Z,6.03
2023-03-01T16:36:56.577Z,5.60
2023-03-01T16:39:23.377Z,5.75
2023-03-01T16:41:49.916Z,6.10
2023-03-01T16:44:16.480Z,5.40
2023-03-01T16:46:44.476Z,5.95
2023-03-01T16:49:11.101Z,5.55
2023-03-01T16:51:38.038Z,5.43
2023-03-01T16:54:05.567Z,5.65
2023-03-01T16:56:34.005Z,5.75
2023-03-01T16:59:03.177Z,5.50
2023-03-01T17:01:38.334Z,5.53
2023-03-01T17:04:05.140Z,5.38
2023-03-01T17:06:33.265Z,5.40
2023-03-01T17:09:00.345Z,6.20
2023-03-01T17:11:26.924Z,5.78
2023-03-01T17:13:53.613Z,5.53
2023-03-01T17:16:21.174Z,5.32
2023-03-01T17:18:48.100Z,5.80
2023-03-01T17:21:15.056Z,5.45
2023-03-01T17:23:43.771Z,5.43
2023-03-01T17:26:10.364Z,5.95
2023-03-01T17:28:37.697Z,5.95
2023-03-01T17:31:06.383Z,5.60
2023-03-01T17:33:33.161Z,6.38
2023-03-01T17:36:00.726Z,5.70
2023-03-01T17:38:27.647Z,5.82
2023-03-01T17:40:54.230Z,6.30
2023-03-01T17:43:20.854Z,5.93
2023-03-01T17:45:48.821Z,5.65
2023-03-01T17:48:16.353Z,5.53
2023-03-01T17:50:43.324Z,6.55
2023-03-01T17:53:10.341Z,5.90
2023-03-01T17:55:38.045Z,5.70
2023-03-01T17:58:05.891Z,5.82
2023-03-01T18:00:32.919Z,6.20
2023-03-01T18:02:59.765Z,6.38
2023-03-01T18:05:26.721Z,6.15
2023-03-01T18:07:53.462Z,6.20
2023-03-01T18:10:20.685Z,6.30
2023-03-01T18:12:47.245Z,6.32
2023-03-01T18:15:13.843Z,6.15
2023-03-01T18:17:40.403Z,5.90
2023-03-01T18:20:07.589Z,6.00
2023-03-01T18:22:34.201Z,6.20
2023-03-01T18:25:00.880Z,6.55
2023-03-01T18:27:27.594Z,7.07
2023-03-01T18:29:54.886Z,6.63
2023-03-01T18:32:22.103Z,6.05
2023-03-01T18:34:48.748Z,6.22
2023-03-01T18:37:16.667Z,6.50
2023-03-01T18:39:43.450Z,6.95
2023-03-01T18:42:10.038Z,6.93
2023-03-01T18:44:36.712Z,6.93
2023-03-01T18:47:03.270Z,7.10
2023-03-01T18:49:29.876Z,7.20
2023-03-01T18:51:56.662Z,6.75
2023-03-01T18:54:23.486Z,6.72
2023-03-01T18:56:50.056Z,6.65
2023-03-01T18:59:16.702Z,6.57
2023-03-01T19:01:43.415Z,7.00
2023-03-01T19:04:11.305Z,6.82
2023-03-01T19:06:38.045Z,6.80
2023-03-01T19:09:06.128Z,6.80
2023-03-01T19:11:34.051Z,6.50
2023-03-01T19:14:01.340Z,7.07
2023-03-01T19:16:31.038Z,6.80
2023-03-01T19:19:00.483Z,6.97
2023-03-01T19:21:29.338Z,6.88
2023-03-01T19:23:57.158Z,7.18
2023-03-01T19:26:25.545Z,6.97
2023-03-01T19:28:53.102Z,7.10
2023-03-01T19:31:24.146Z,7.15
2023-03-01T19:33:51.330Z,7.28
2023-03-01T19:36:21.410Z,7.22
2023-03-01T19:38:48.073Z,7.22
2023-03-01T19:41:17.554Z,7.97
2023-03-01T19:43:45.709Z,7.50
2023-03-01T19:46:12.747Z,7.63
2023-03-01T19:48:41.957Z,7.38
2023-03-01T19:51:09.019Z,7.60
2023-03-01T19:53:37.329Z,8.07
2023-03-01T19:56:04.480Z,7.95
2023-03-01T19:58:32.118Z,7.85
2023-03-01T20:00:59.147Z,7.68
2023-03-01T20:03:30.899Z,8.02
2023-03-01T20:05:58.455Z,7.90
2023-03-01T20:08:25.434Z,7.93
2023-03-01T20:10:51.999Z,7.90
2023-03-01T20:13:21.216Z,8.45
2023-03-01T20:15:48.012Z,7.97
2023-03-01T20:18:15.193Z,8.25
2023-03-01T20:20:41.755Z,7.95
2023-03-01T20:23:08.540Z,7.97
2023-03-01T20:25:35.154Z,8.15
2023-03-01T20:28:01.836Z,7.80
2023-03-01T20:30:28.478Z,8.07
2023-03-01T20:32:55.134Z,8.07
2023-03-01T20:35:22.043Z,7.63
2023-03-01T20:37:53.132Z,7.60
2023-03-01T20:40:21.483Z,7.55
2023-03-01T20:42:48.212Z,8.23
2023-03-01T20:45:15.005Z,7.75
2023-03-01T20:47:41.695Z,7.60
2023-03-01T20:50:08.972Z,8.00
2023-03-01T20:52:45.854Z,7.82
2023-03-01T20:55:13.903Z,7.50
2023-03-01T20:57:40.543Z,7.97
2023-03-01T21:00:09.647Z,7.35
2023-03-01T21:02:36.310Z,7.50
2023-03-01T21:05:03.091Z,7.40
2023-03-01T21:07:29.693Z,7.70
2023-03-01T21:09:56.381Z,7.70
2023-03-01T21:12:23.033Z,7.75
2023-03-01T21:14:49.737Z,7.68
2023-03-01T21:17:17.662Z,8.20
2023-03-01T21:19:44.911Z,7.70
2023-03-01T21:22:13.605Z,7.68
2023-03-01T21:24:40.594Z,7.60
2023-03-01T21:27:07.180Z,8.60
2023-03-01T21:29:45.256Z,9.15
2023-03-01T21:32:13.439Z,7.85
2023-03-01T21:34:40.968Z,7.88
2023-03-01T21:37:08.799Z,7.82
2023-03-01T21:39:35.665Z,7.97
2023-03-01T21:42:04.406Z,8.18
2023-03-01T21:44:31.859Z,8.43
2023-03-01T21:46:59.116Z,8.40
2023-03-01T21:49:26.458Z,7.97
2023-03-01T21:51:53.310Z,8.27
2023-03-01T21:54:20.416Z,8.57
2023-03-01T21:56:48.214Z,8.43
2023-03-01T21:59:20.479Z,8.07
2023-03-01T22:01:48.068Z,8.70
2023-03-01T22:04:15.466Z,8.95
2023-03-01T22:06:44.748Z,9.00
2023-03-01T22:09:20.088Z,8.98
2023-03-01T22:11:51.760Z,8.82
2023-03-01T22:14:19.034Z,11.68
2023-03-01T22:16:47.677Z,10.68
2023-03-01T22:19:15.925Z,10.57
2023-03-01T22:21:44.285Z,10.40
2023-03-01T22:24:11.606Z,10.55
2023-03-01T22:26:40.677Z,10.10
2023-03-01T22:29:10.522Z,10.55
2023-03-01T22:31:37.715Z,10.27
2023-03-01T22:34:05.099Z,10.35
2023-03-01T22:36:32.272Z,10.23
2023-03-01T22:39:02.242Z,10.07
2023-03-01T22:41:49.615Z,10.77
2023-03-01T22:44:19.379Z,10.70
2023-03-01T22:46:46.410Z,10.68
2023-03-01T22:49:16.411Z,10.90
2023-03-01T22:51:43.701Z,10.93
2023-03-01T22:54:11.306Z,10.43
2023-03-01T22:56:38.929Z,10.60
2023-03-01T22:59:11.022Z,10.48
2023-03-01T23:01:38.954Z,10.65
2023-03-01T23:04:05.706Z,10.43
2023-03-01T23:06:32.620Z,10.45
2023-03-01T23:09:01.375Z,11.10
2023-03-01T23:11:28.374Z,10.45
2023-03-01T23:13:55.678Z,10.85
2023-03-01T23:16:26.726Z,11.15
2023-03-01T23:18:59.123Z,10.98
2023-03-01T23:21:26.180Z,11.40
2023-03-01T23:23:54.964Z,11.07
2023-03-01T23:26:22.452Z,10.90
2023-03-01T23:28:50.842Z,11.45
2023-03-01T23:31:18.124Z,11.82
2023-03-01T23:33:45.807Z,11.38
2023-03-01T23:36:19.531Z,11.60
2023-03-01T23:38:47.276Z,11.80
2023-03-01T23:41:16.526Z,11.18
2023-03-01T23:43:49.078Z,11.32
2023-03-01T23:46:17.471Z,11.27
2023-03-01T23:48:44.700Z,11.85
2023-03-01T23:51:12.237Z,11.63
2023-03-01T23:53:41.692Z,11.10
2023-03-01T23:56:12.212Z,11.38
2023-03-01T23:58:38.900Z,11.30
